createdAt,value
2023-01-20T00:14:50.468Z,1012.69
2023-01-20T00:43:56.897Z,1012.88
2023-01-20T01:12:51.365Z,1013.17
2023-01-20T01:41:50.488Z,1013.59
2023-01-20T02:10:56.347Z,1013.64
2023-01-20T02:39:54.073Z,1013.91
2023-01-20T03:08:47.858Z,1014.12
2023-01-20T03:38:04.158Z,1014.47
2023-01-20T04:07:02.188Z,1014.69
2023-01-20T04:36:01.890Z,1015.15
2023-01-20T05:05:02.676Z,1015.41
2023-01-20T05:34:05.026Z,1015.73
2023-01-20T06:03:03.409Z,1016.28
2023-01-20T06:31:51.322Z,1016.45
2023-01-20T07:00:43.968Z,1016.79
2023-01-20T07:29:39.624Z,1017.15
2023-01-20T07:58:18.947Z,1017.55
2023-01-20T08:27:31.419Z,1018.07
2023-01-20T08:56:41.918Z,1018.42
2023-01-20T09:25:35.594Z,1018.74
2023-01-20T09:54:32.413Z,1019.04
2023-01-20T10:23:42.292Z,1019.15
2023-01-20T10:52:27.593Z,1019.16
2023-01-20T11:21:31.700Z,1019.23
2023-01-20T11:50:33.076Z,1019.26
2023-01-20T12:19:24.369Z,1019.21
2023-01-20T12:47:50.968Z,1019.26
2023-01-20T13:16:39.131Z,1019.29
2023-01-20T13:45:16.904Z,1019.31
2023-01-20T14:13:42.758Z,1019.46
2023-01-20T14:42:56.506Z,1019.63
2023-01-20T15:11:44.028Z,1019.78
2023-01-20T15:40:42.585Z,1019.89
2023-01-20T16:09:36.055Z,1019.88
2023-01-20T16:38:43.275Z,1020.13
2023-01-20T17:07:47.420Z,1020.46
2023-01-20T17:36:50.471Z,1020.69
2023-01-20T18:05:50.322Z,1020.77
2023-01-20T18:34:49.332Z,1020.8
2023-01-20T19:03:49.391Z,1020.94
2023-01-20T19:32:42.999Z,1021.07
2023-01-20T20:01:36.889Z,1021.07
2023-01-20T20:30:28.890Z,1021.17
2023-01-20T20:59:07.818Z,1021.29
2023-01-20T21:27:27.424Z,1021.32
2023-01-20T21:55:44.256Z,1021.24
2023-01-20T22:24:04.153Z,1021.45
2023-01-20T22:52:19.435Z,1021.58
2023-01-20T23:20:39.374Z,1021.47
2023-01-20T23:48:53.397Z,1021.52
